Time;durP1;ratioP1;P1;durP2;ratioP2;P2;SDS_P1;SDS_P2;PMS_P1;PMS_P2;Temp;Humidity;BMP_temperature;BMP_pressure;BME280_temperature;BME280_humidity;BME280_pressure;Samples;Min_cycle;Max_cycle;Signal;HPM_P1;HPM_P2
2021/12/20 00:00:26;;;;;;;;;;;2.40;99.90;;;;;;5086190;28;19925;-88
2021/12/20 00:03:04;;;;;;;;;;;3.60;99.90;;;;;;5085141;28;19978;-88
2021/12/20 00:05:34;;;;;;;;;;;2.80;99.90;;;;;;5083847;28;19936;-88
2021/12/20 00:08:06;;;;;;;;;;;2.30;99.90;;;;;;5086091;28;19924;-85
2021/12/20 00:10:33;;;;;;;;;;;2.20;99.90;;;;;;5096883;28;19947;-87
2021/12/20 00:13:18;;;;;;;;;;;2.30;99.90;;;;;;5095667;28;19928;-86
2021/12/20 00:15:45;;;;;;;;;;;3.20;99.90;;;;;;5099713;28;19984;-86
2021/12/20 00:18:16;;;;;;;;;;;1.70;99.90;;;;;;5099181;28;19975;-87
2021/12/20 00:20:43;;;;;;;;;;;2.20;99.90;;;;;;5085682;28;20007;-87
2021/12/20 00:23:10;;;;;;;;;;;3.30;99.90;;;;;;5084143;28;19928;-86
2021/12/20 00:25:37;;;;;;;;;;;2.10;99.90;;;;;;5086577;28;20023;-87
2021/12/20 00:28:06;;;;;;;;;;;2.20;99.90;;;;;;5082888;28;19925;-87
2021/12/20 00:30:39;;;;;;;;;;;2.20;99.90;;;;;;5083466;28;20326;-86
2021/12/20 00:33:12;;;;;;;;;;;2.10;99.90;;;;;;5081335;28;19932;-87
2021/12/20 00:35:42;;;;;;;;;;;2.00;99.90;;;;;;5082581;28;20023;-87
2021/12/20 00:40:53;;;;;;;;;;;2.00;99.90;;;;;;5082278;28;19927;-87
2021/12/20 00:43:24;;;;;;;;;;;2.00;99.90;;;;;;5081607;28;19924;-87
2021/12/20 00:45:55;;;;;;;;;;;2.00;99.90;;;;;;5082637;28;20350;-85
2021/12/20 00:48:21;;;;;;;;;;;1.90;99.90;;;;;;5082945;28;19946;-87
2021/12/20 00:50:52;;;;;;;;;;;2.00;99.90;;;;;;5081959;28;19924;-88
2021/12/20 00:53:22;;;;;;;;;;;2.00;99.90;;;;;;5082293;28;20260;-87
2021/12/20 00:55:50;;;;;;;;;;;2.80;99.90;;;;;;5081278;28;19939;-87
2021/12/20 00:58:17;;;;;;;;;;;2.90;99.90;;;;;;5083521;28;19924;-87
2021/12/20 01:00:51;;;;;;;;;;;1.80;99.90;;;;;;5082445;28;20315;-85
2021/12/20 01:03:20;;;;;;;;;;;1.90;99.90;;;;;;5083396;28;19947;-87
2021/12/20 01:05:56;;;;;;;;;;;1.80;99.90;;;;;;5084833;28;20015;-86
2021/12/20 01:08:27;;;;;;;;;;;1.80;99.90;;;;;;5083397;28;19925;-86
2021/12/20 01:10:55;;;;;;;;;;;1.80;99.90;;;;;;5081714;28;19925;-87
2021/12/20 01:13:27;;;;;;;;;;;1.80;99.90;;;;;;5082012;28;19947;-86
2021/12/20 01:15:57;;;;;;;;;;;1.80;99.90;;;;;;5083359;28;19924;-86
2021/12/20 01:18:24;;;;;;;;;;;1.80;99.90;;;;;;5084417;28;19932;-86
2021/12/20 01:20:53;;;;;;;;;;;1.80;99.90;;;;;;5085797;28;20019;-86
2021/12/20 01:23:25;;;;;;;;;;;1.90;99.90;;;;;;5087563;28;19924;-86
2021/12/20 01:25:52;;;;;;;;;;;1.80;99.90;;;;;;5089356;28;19924;-86
2021/12/20 01:28:24;;;;;;;;;;;1.90;99.90;;;;;;5089424;28;19931;-86
2021/12/20 01:30:51;;;;;;;;;;;2.10;99.90;;;;;;5080882;28;19971;-87
2021/12/20 01:33:20;;;;;;;;;;;1.70;99.90;;;;;;5084153;28;19959;-85
2021/12/20 01:35:47;;;;;;;;;;;1.70;99.90;;;;;;5083289;28;19931;-85
2021/12/20 01:38:16;;;;;;;;;;;1.80;99.90;;;;;;5079236;28;19984;-86
2021/12/20 01:40:47;;;;;;;;;;;2.20;99.90;;;;;;5096266;28;19940;-85
2021/12/20 01:43:17;;;;;;;;;;;0.00;99.90;;;;;;5093436;28;19931;-86
2021/12/20 01:45:50;;;;;;;;;;;1.80;99.90;;;;;;5094216;28;19924;-87
2021/12/20 01:48:20;;;;;;;;;;;1.70;99.90;;;;;;5093359;28;19931;-86
2021/12/20 01:51:17;;;;;;;;;;;2.80;99.90;;;;;;5080171;28;19924;-87
2021/12/20 01:53:52;;;;;;;;;;;2.10;99.90;;;;;;5079711;28;21794;-86
2021/12/20 01:56:21;;;;;;;;;;;1.70;99.90;;;;;;5080387;28;20007;-86
2021/12/20 01:58:48;;;;;;;;;;;0.30;99.90;;;;;;5079452;28;19924;-86
2021/12/20 02:01:22;;;;;;;;;;;1.80;99.90;;;;;;5085539;28;19924;-86
2021/12/20 02:03:55;;;;;;;;;;;1.70;99.90;;;;;;5099058;28;19925;-87
2021/12/20 02:06:29;;;;;;;;;;;1.70;99.90;;;;;;5098807;28;19970;-86
2021/12/20 02:08:58;;;;;;;;;;;1.70;99.90;;;;;;5098943;28;19922;-86
2021/12/20 02:11:30;;;;;;;;;;;1.70;99.90;;;;;;5087386;28;19924;-86
2021/12/20 02:13:58;;;;;;;;;;;1.20;99.90;;;;;;5081723;28;19956;-86
2021/12/20 02:16:31;;;;;;;;;;;1.70;99.90;;;;;;5083908;28;19924;-87
2021/12/20 02:19:01;;;;;;;;;;;1.70;99.90;;;;;;5080486;28;19924;-86
2021/12/20 02:21:33;;;;;;;;;;;1.70;99.90;;;;;;5083206;28;19932;-86
2021/12/20 02:24:00;;;;;;;;;;;1.70;99.90;;;;;;5086918;28;19928;-85
2021/12/20 02:26:27;;;;;;;;;;;1.60;99.90;;;;;;5095217;28;19912;-86
2021/12/20 02:28:56;;;;;;;;;;;1.90;99.90;;;;;;5097631;28;19924;-88
2021/12/20 02:39:40;;;;;;;;;;;1.60;99.90;;;;;;5082401;28;19932;-86
2021/12/20 02:42:13;;;;;;;;;;;1.50;99.90;;;;;;5092803;28;19913;-85
2021/12/20 02:44:51;;;;;;;;;;;6.10;99.90;;;;;;5085906;28;19948;-85
2021/12/20 02:47:28;;;;;;;;;;;1.70;99.90;;;;;;5081893;28;20007;-86
2021/12/20 02:49:56;;;;;;;;;;;1.50;99.90;;;;;;5083072;28;19960;-86
2021/12/20 02:52:30;;;;;;;;;;;1.60;99.90;;;;;;5089288;28;19924;-86
2021/12/20 02:55:00;;;;;;;;;;;1.60;99.90;;;;;;5095007;28;19963;-86
2021/12/20 02:57:29;;;;;;;;;;;1.60;99.90;;;;;;5094111;28;19920;-85
2021/12/20 02:59:56;;;;;;;;;;;1.60;99.90;;;;;;5095932;28;19924;-85
2021/12/20 03:02:27;;;;;;;;;;;1.50;99.90;;;;;;5096837;28;19924;-84
2021/12/20 03:05:05;;;;;;;;;;;1.60;99.90;;;;;;5084550;28;19975;-87
2021/12/20 03:07:45;;;;;;;;;;;1.60;99.90;;;;;;5087433;28;19992;-86
2021/12/20 03:10:15;;;;;;;;;;;3.80;99.90;;;;;;5089847;28;19978;-86
2021/12/20 03:15:27;;;;;;;;;;;1.70;99.90;;;;;;5090456;28;19931;-86
2021/12/20 03:17:55;;;;;;;;;;;1.70;99.90;;;;;;5094091;28;20007;-84
2021/12/20 03:20:24;;;;;;;;;;;1.70;99.90;;;;;;5094870;28;19947;-84
2021/12/20 03:23:07;;;;;;;;;;;1.70;99.90;;;;;;5093260;28;19929;-85
2021/12/20 03:25:47;;;;;;;;;;;1.60;99.90;;;;;;5093903;28;19924;-87
2021/12/20 03:28:15;;;;;;;;;;;1.70;99.90;;;;;;5091139;28;19924;-87
2021/12/20 03:33:27;;;;;;;;;;;1.50;99.90;;;;;;5084465;28;20349;-87
2021/12/20 03:35:58;;;;;;;;;;;1.60;99.90;;;;;;5091019;28;19944;-87
2021/12/20 03:38:26;;;;;;;;;;;1.60;99.90;;;;;;5119077;22;19924;-82
2021/12/20 03:40:53;;;;;;;;;;;1.20;99.90;;;;;;5109382;28;19925;-81
2021/12/20 03:43:19;;;;;;;;;;;1.50;99.90;;;;;;5110233;28;20379;-81
2021/12/20 03:45:49;;;;;;;;;;;1.50;99.90;;;;;;5117912;28;20302;-80
2021/12/20 03:48:16;;;;;;;;;;;1.60;99.90;;;;;;5118028;28;19944;-80
2021/12/20 03:50:42;;;;;;;;;;;1.30;99.90;;;;;;5117452;28;19924;-80
2021/12/20 03:53:09;;;;;;;;;;;1.50;99.90;;;;;;5118406;28;19924;-80
2021/12/20 03:55:37;;;;;;;;;;;1.50;99.90;;;;;;5118226;28;19924;-80
2021/12/20 03:58:04;;;;;;;;;;;1.50;99.90;;;;;;5118350;28;19924;-79
2021/12/20 04:00:31;;;;;;;;;;;1.50;99.90;;;;;;5118425;28;19924;-80
2021/12/20 04:02:57;;;;;;;;;;;1.50;99.90;;;;;;5118628;28;19951;-80
2021/12/20 04:05:24;;;;;;;;;;;1.50;99.90;;;;;;5119292;28;19946;-80
2021/12/20 04:07:50;;;;;;;;;;;1.50;99.90;;;;;;5113471;28;19954;-80
2021/12/20 04:10:17;;;;;;;;;;;1.50;99.90;;;;;;5111189;28;19924;-81
2021/12/20 04:12:44;;;;;;;;;;;1.50;99.90;;;;;;5109654;28;20294;-81
2021/12/20 04:15:11;;;;;;;;;;;1.50;99.90;;;;;;5108263;28;19924;-81
2021/12/20 04:17:37;;;;;;;;;;;1.50;99.90;;;;;;5109064;28;19950;-80
2021/12/20 04:20:04;;;;;;;;;;;1.50;99.90;;;;;;5114862;28;19946;-80
2021/12/20 04:22:31;;;;;;;;;;;1.50;99.90;;;;;;5115318;28;20488;-81
2021/12/20 04:24:57;;;;;;;;;;;1.50;99.90;;;;;;5113366;28;19928;-81
2021/12/20 04:27:24;;;;;;;;;;;1.50;99.90;;;;;;5113233;28;19931;-80
2021/12/20 04:29:54;;;;;;;;;;;1.50;99.90;;;;;;5113646;28;19931;-80
2021/12/20 04:32:20;;;;;;;;;;;1.60;99.90;;;;;;5111538;28;19966;-81
2021/12/20 04:34:47;;;;;;;;;;;1.40;99.90;;;;;;5107964;28;19974;-81
2021/12/20 04:37:13;;;;;;;;;;;1.30;99.90;;;;;;5110120;28;19924;-81
2021/12/20 04:39:40;;;;;;;;;;;1.30;99.90;;;;;;5114766;28;20410;-81
2021/12/20 04:42:08;;;;;;;;;;;1.30;99.90;;;;;;5113533;28;19928;-80
2021/12/20 04:44:34;;;;;;;;;;;1.40;99.90;;;;;;5108287;28;20444;-81
2021/12/20 04:47:02;;;;;;;;;;;1.30;99.90;;;;;;5103468;28;19931;-81
2021/12/20 04:49:29;;;;;;;;;;;1.30;99.90;;;;;;5102200;28;19924;-82
2021/12/20 04:51:56;;;;;;;;;;;1.30;99.90;;;;;;5103214;28;19924;-82
2021/12/20 04:54:22;;;;;;;;;;;1.30;99.90;;;;;;5102164;28;19931;-82
2021/12/20 04:56:49;;;;;;;;;;;1.30;99.90;;;;;;5103267;28;19998;-81
2021/12/20 04:59:15;;;;;;;;;;;1.30;99.90;;;;;;5102609;28;19925;-81
2021/12/20 05:01:42;;;;;;;;;;;1.40;99.90;;;;;;5102056;28;19937;-82
2021/12/20 05:04:10;;;;;;;;;;;1.30;99.90;;;;;;5104138;28;19946;-80
2021/12/20 05:06:36;;;;;;;;;;;1.20;99.90;;;;;;5111833;28;19946;-81
2021/12/20 05:09:04;;;;;;;;;;;1.30;99.90;;;;;;5115962;28;19954;-80
2021/12/20 05:11:33;;;;;;;;;;;1.30;99.90;;;;;;5119698;28;19935;-79
2021/12/20 05:14:00;;;;;;;;;;;1.30;99.90;;;;;;5118959;28;19912;-79
2021/12/20 05:16:26;;;;;;;;;;;1.30;99.90;;;;;;5119680;28;19912;-80
2021/12/20 05:18:53;;;;;;;;;;;1.30;99.90;;;;;;5119129;28;19924;-80
2021/12/20 05:21:21;;;;;;;;;;;1.40;99.90;;;;;;5109151;28;19946;-80
2021/12/20 05:23:47;;;;;;;;;;;1.30;99.90;;;;;;5115323;28;19924;-80
2021/12/20 05:26:14;;;;;;;;;;;1.30;99.90;;;;;;5117426;28;19924;-79
2021/12/20 05:28:40;;;;;;;;;;;1.30;99.90;;;;;;5110724;28;20374;-80
2021/12/20 05:31:07;;;;;;;;;;;1.30;99.90;;;;;;5105466;28;20328;-80
2021/12/20 05:33:34;;;;;;;;;;;1.20;99.90;;;;;;5102603;28;19924;-81
2021/12/20 05:36:00;;;;;;;;;;;1.40;99.90;;;;;;5101839;28;19924;-80
2021/12/20 05:38:28;;;;;;;;;;;1.40;99.90;;;;;;5108960;28;19946;-80
2021/12/20 05:40:55;;;;;;;;;;;1.30;99.90;;;;;;5117697;28;20002;-80
2021/12/20 05:43:21;;;;;;;;;;;1.30;99.90;;;;;;5104816;28;20010;-81
2021/12/20 05:45:50;;;;;;;;;;;1.40;99.90;;;;;;5100721;28;19990;-80
2021/12/20 05:48:16;;;;;;;;;;;1.40;99.90;;;;;;5106950;28;19973;-81
2021/12/20 05:50:42;;;;;;;;;;;1.40;99.90;;;;;;5107554;28;19959;-80
2021/12/20 05:53:09;;;;;;;;;;;1.40;99.90;;;;;;5103173;28;19924;-81
2021/12/20 05:55:37;;;;;;;;;;;1.40;99.90;;;;;;5102482;28;19931;-80
2021/12/20 05:58:03;;;;;;;;;;;1.40;99.90;;;;;;5102366;28;19924;-80
2021/12/20 06:00:30;;;;;;;;;;;1.40;99.90;;;;;;5106463;28;19928;-80
2021/12/20 06:02:56;;;;;;;;;;;1.50;99.90;;;;;;5110853;28;19925;-80
2021/12/20 06:05:23;;;;;;;;;;;1.50;99.90;;;;;;5109853;28;19924;-80
2021/12/20 06:07:50;;;;;;;;;;;1.40;99.90;;;;;;5107619;28;19928;-80
2021/12/20 06:10:17;;;;;;;;;;;1.50;99.90;;;;;;5107426;28;19924;-81
2021/12/20 06:12:45;;;;;;;;;;;1.50;99.90;;;;;;5105563;28;19931;-80
2021/12/20 06:15:12;;;;;;;;;;;1.50;99.90;;;;;;5101524;28;20010;-80
2021/12/20 06:17:39;;;;;;;;;;;1.50;99.90;;;;;;5100492;28;20401;-80
2021/12/20 06:20:07;;;;;;;;;;;1.50;99.90;;;;;;5099921;28;19978;-81
2021/12/20 06:22:33;;;;;;;;;;;1.60;99.90;;;;;;5100547;28;19946;-81
2021/12/20 06:25:00;;;;;;;;;;;1.60;99.90;;;;;;5100827;28;19946;-80
2021/12/20 06:27:26;;;;;;;;;;;1.70;99.90;;;;;;5100675;28;20397;-80
2021/12/20 06:29:54;;;;;;;;;;;1.70;99.90;;;;;;5100591;28;20291;-81
2021/12/20 06:32:20;;;;;;;;;;;1.60;99.90;;;;;;5101770;28;19924;-81
2021/12/20 06:34:47;;;;;;;;;;;1.70;99.90;;;;;;5100810;28;20423;-81
2021/12/20 06:37:14;;;;;;;;;;;1.70;99.90;;;;;;5100365;28;19931;-81
2021/12/20 06:39:41;;;;;;;;;;;1.70;99.90;;;;;;5100736;28;19928;-81
2021/12/20 06:42:08;;;;;;;;;;;1.60;99.90;;;;;;5100600;28;20332;-81
2021/12/20 06:44:34;;;;;;;;;;;1.70;99.90;;;;;;5102537;28;19925;-79
2021/12/20 06:47:02;;;;;;;;;;;1.70;99.90;;;;;;5099267;28;19946;-80
2021/12/20 06:49:29;;;;;;;;;;;1.70;99.90;;;;;;5099065;28;19989;-80
2021/12/20 06:51:59;;;;;;;;;;;1.70;99.90;;;;;;5099108;28;19972;-80
2021/12/20 06:54:26;;;;;;;;;;;1.70;99.90;;;;;;5099440;28;19924;-80
2021/12/20 06:56:52;;;;;;;;;;;1.70;99.90;;;;;;5098678;28;19977;-80
2021/12/20 06:59:19;;;;;;;;;;;1.60;99.90;;;;;;5098577;28;19928;-80
2021/12/20 07:01:45;;;;;;;;;;;1.60;99.90;;;;;;5098311;28;19924;-80
2021/12/20 07:04:14;;;;;;;;;;;1.60;99.90;;;;;;5098595;28;19974;-80
2021/12/20 07:06:41;;;;;;;;;;;1.60;99.90;;;;;;5099754;28;19925;-81
2021/12/20 07:09:07;;;;;;;;;;;1.60;99.90;;;;;;5099337;28;19924;-81
2021/12/20 07:11:34;;;;;;;;;;;1.60;99.90;;;;;;5099493;28;19924;-80
2021/12/20 07:14:01;;;;;;;;;;;1.60;99.90;;;;;;5109132;28;19956;-79
2021/12/20 07:16:31;;;;;;;;;;;1.50;99.90;;;;;;5108618;28;19970;-79
2021/12/20 07:18:58;;;;;;;;;;;1.50;99.90;;;;;;5105866;28;19988;-80
2021/12/20 07:21:26;;;;;;;;;;;1.50;99.90;;;;;;5100822;28;19978;-80
2021/12/20 07:23:52;;;;;;;;;;;1.60;99.90;;;;;;5103320;28;19973;-79
2021/12/20 07:26:19;;;;;;;;;;;1.50;99.90;;;;;;5103195;28;19931;-82
2021/12/20 07:28:46;;;;;;;;;;;1.60;99.90;;;;;;5103469;28;19924;-81
2021/12/20 07:31:12;;;;;;;;;;;1.60;99.90;;;;;;5102064;28;19925;-81
2021/12/20 07:33:39;;;;;;;;;;;1.60;99.90;;;;;;5103165;28;19928;-81
2021/12/20 07:36:06;;;;;;;;;;;1.50;99.90;;;;;;5101743;28;19924;-81
2021/12/20 07:38:35;;;;;;;;;;;1.50;99.90;;;;;;5103369;28;19950;-81
2021/12/20 07:41:02;;;;;;;;;;;1.50;99.90;;;;;;5102847;28;19982;-81
2021/12/20 07:43:28;;;;;;;;;;;1.60;99.90;;;;;;5102963;28;19924;-81
2021/12/20 07:45:55;;;;;;;;;;;1.50;99.90;;;;;;5106930;28;19973;-80
2021/12/20 07:48:21;;;;;;;;;;;1.70;99.90;;;;;;5105001;28;19924;-81
2021/12/20 07:50:48;;;;;;;;;;;1.50;99.90;;;;;;5104184;28;19974;-80
2021/12/20 07:53:15;;;;;;;;;;;1.50;99.90;;;;;;5102943;28;20448;-80
2021/12/20 07:55:43;;;;;;;;;;;1.50;99.90;;;;;;5103557;28;19946;-80
2021/12/20 07:58:10;;;;;;;;;;;1.50;99.90;;;;;;5107663;28;20348;-80
2021/12/20 08:00:38;;;;;;;;;;;1.50;99.90;;;;;;5110708;28;19924;-80
2021/12/20 08:03:04;;;;;;;;;;;1.50;99.90;;;;;;5106921;28;20268;-80
2021/12/20 08:05:32;;;;;;;;;;;1.50;99.90;;;;;;5107375;28;19924;-80
2021/12/20 08:07:59;;;;;;;;;;;1.50;99.90;;;;;;5111508;28;20023;-79
2021/12/20 08:10:27;;;;;;;;;;;1.50;99.90;;;;;;5112534;28;19925;-79
2021/12/20 08:12:55;;;;;;;;;;;1.50;99.90;;;;;;5105933;28;19931;-79
2021/12/20 08:15:22;;;;;;;;;;;1.50;99.90;;;;;;5111276;28;19947;-79
2021/12/20 08:17:48;;;;;;;;;;;1.50;99.90;;;;;;5120799;28;20061;-80
2021/12/20 08:20:15;;;;;;;;;;;1.60;99.90;;;;;;5120483;28;19931;-80
2021/12/20 08:22:41;;;;;;;;;;;1.60;99.90;;;;;;5120047;28;19908;-79
2021/12/20 08:25:09;;;;;;;;;;;1.50;99.90;;;;;;5119838;28;19923;-81
2021/12/20 08:27:36;;;;;;;;;;;1.50;99.90;;;;;;5120994;28;19946;-81
2021/12/20 08:30:04;;;;;;;;;;;1.50;99.90;;;;;;5111618;28;19927;-80
2021/12/20 08:32:31;;;;;;;;;;;1.60;99.90;;;;;;5101249;28;19969;-82
2021/12/20 08:34:57;;;;;;;;;;;1.50;99.90;;;;;;5101162;28;20313;-82
2021/12/20 08:37:24;;;;;;;;;;;1.50;99.90;;;;;;5097382;28;19952;-79
2021/12/20 08:39:53;;;;;;;;;;;1.60;99.90;;;;;;5099536;28;19931;-81
2021/12/20 08:42:20;;;;;;;;;;;1.70;99.90;;;;;;5101412;28;19924;-80
2021/12/20 08:44:46;;;;;;;;;;;1.70;99.90;;;;;;5102042;28;19931;-80
2021/12/20 08:47:14;;;;;;;;;;;1.70;99.90;;;;;;5111187;28;19931;-80
2021/12/20 08:49:41;;;;;;;;;;;1.70;99.90;;;;;;5111465;28;19924;-80
2021/12/20 08:52:08;;;;;;;;;;;1.70;99.90;;;;;;5104610;28;19998;-80
2021/12/20 08:54:35;;;;;;;;;;;1.80;99.90;;;;;;5101219;28;19975;-80
2021/12/20 08:57:01;;;;;;;;;;;1.70;99.90;;;;;;5104797;28;20247;-80
2021/12/20 08:59:28;;;;;;;;;;;1.70;99.90;;;;;;5111801;28;19935;-79
2021/12/20 09:01:54;;;;;;;;;;;1.70;99.90;;;;;;5113201;28;19924;-80
2021/12/20 09:04:22;;;;;;;;;;;1.70;99.90;;;;;;5107708;28;19924;-81
2021/12/20 09:06:49;;;;;;;;;;;1.70;99.90;;;;;;5115456;28;19908;-81
2021/12/20 09:09:16;;;;;;;;;;;1.70;99.90;;;;;;5107870;28;19930;-81
2021/12/20 09:11:43;;;;;;;;;;;1.70;99.90;;;;;;5111743;28;19924;-81
2021/12/20 09:14:09;;;;;;;;;;;1.80;99.90;;;;;;5102761;28;19928;-82
2021/12/20 09:16:36;;;;;;;;;;;1.80;99.90;;;;;;5100432;28;19967;-81
2021/12/20 09:19:03;;;;;;;;;;;1.80;99.90;;;;;;5107025;28;19932;-81
2021/12/20 09:21:31;;;;;;;;;;;1.80;99.90;;;;;;5109631;28;19924;-80
2021/12/20 09:23:57;;;;;;;;;;;1.90;99.90;;;;;;5100449;28;19931;-80
2021/12/20 09:26:24;;;;;;;;;;;2.00;99.90;;;;;;5100405;28;19967;-80
2021/12/20 09:28:50;;;;;;;;;;;1.90;99.90;;;;;;5103413;28;19935;-80
2021/12/20 09:31:17;;;;;;;;;;;2.40;99.90;;;;;;5110717;28;19924;-80
2021/12/20 09:33:43;;;;;;;;;;;2.00;99.90;;;;;;5108221;28;19924;-81
2021/12/20 09:36:09;;;;;;;;;;;2.00;99.90;;;;;;5105603;28;19933;-81
2021/12/20 09:41:27;;;;;;;;;;;2.00;99.90;;;;;;5135408;28;19918;-84
2021/12/20 09:43:57;;;;;;;;;;;2.20;99.90;;;;;;5135402;28;19951;-86
2021/12/20 09:46:26;;;;;;;;;;;2.00;99.90;;;;;;5128965;28;19928;-85
2021/12/20 09:49:02;;;;;;;;;;;2.20;99.90;;;;;;5125286;28;19935;-85
2021/12/20 09:51:35;;;;;;;;;;;2.20;99.90;;;;;;5123892;28;19930;-85
2021/12/20 09:54:04;;;;;;;;;;;2.10;99.90;;;;;;5127600;28;19928;-86
2021/12/20 09:56:39;;;;;;;;;;;2.10;99.90;;;;;;5129444;28;19931;-86
2021/12/20 09:59:06;;;;;;;;;;;1.90;99.90;;;;;;5127919;28;20010;-87
2021/12/20 10:01:34;;;;;;;;;;;2.20;99.90;;;;;;5134749;28;20006;-85
2021/12/20 10:04:01;;;;;;;;;;;2.30;99.90;;;;;;5138992;28;19954;-83
2021/12/20 10:06:29;;;;;;;;;;;4.60;99.90;;;;;;5132521;28;19924;-87
2021/12/20 10:08:57;;;;;;;;;;;2.40;99.90;;;;;;5128092;28;19923;-87
2021/12/20 10:11:25;;;;;;;;;;;2.50;99.90;;;;;;5130381;28;19924;-87
2021/12/20 10:14:02;;;;;;;;;;;2.20;99.90;;;;;;5130621;28;20358;-86
2021/12/20 10:16:29;;;;;;;;;;;2.20;99.90;;;;;;5128792;27;19984;-87
2021/12/20 10:19:00;;;;;;;;;;;2.40;99.90;;;;;;5126503;28;19923;-87
2021/12/20 10:21:34;;;;;;;;;;;2.50;99.90;;;;;;5125149;28;19924;-86
2021/12/20 10:24:00;;;;;;;;;;;2.60;99.90;;;;;;5123269;28;19930;-86
2021/12/20 10:26:27;;;;;;;;;;;2.70;99.90;;;;;;5121641;28;19938;-86
2021/12/20 10:28:56;;;;;;;;;;;2.70;99.90;;;;;;5120730;28;19984;-86
2021/12/20 10:31:25;;;;;;;;;;;2.70;99.90;;;;;;5123852;28;19923;-86
2021/12/20 10:33:53;;;;;;;;;;;2.80;99.90;;;;;;5123522;28;19979;-86
2021/12/20 10:36:19;;;;;;;;;;;2.60;99.90;;;;;;5124397;28;19946;-87
2021/12/20 10:38:56;;;;;;;;;;;2.70;99.90;;;;;;5122587;28;19970;-86
2021/12/20 10:41:33;;;;;;;;;;;2.70;99.90;;;;;;5125302;28;19924;-85
2021/12/20 10:46:52;;;;;;;;;;;2.70;99.90;;;;;;5121366;28;19924;-85
2021/12/20 10:49:34;;;;;;;;;;;2.70;99.90;;;;;;5130264;28;19928;-85
2021/12/20 10:52:01;;;;;;;;;;;3.00;99.90;;;;;;5128630;28;19965;-85
2021/12/20 10:54:47;;;;;;;;;;;2.70;99.90;;;;;;5125463;28;19923;-84
2021/12/20 11:00:49;;;;;;;;;;;2.90;99.90;;;;;;5127406;28;19927;-86
2021/12/20 11:03:39;;;;;;;;;;;2.80;99.90;;;;;;5106878;28;20018;-87
2021/12/20 11:09:09;;;;;;;;;;;3.70;99.90;;;;;;5141050;28;19912;-86
2021/12/20 11:11:51;;;;;;;;;;;3.00;99.90;;;;;;5141391;28;19924;-85
2021/12/20 11:14:28;;;;;;;;;;;3.10;99.90;;;;;;5140128;28;19923;-85
2021/12/20 11:16:59;;;;;;;;;;;4.10;99.90;;;;;;5128246;28;19923;-86
2021/12/20 11:19:38;;;;;;;;;;;3.00;99.90;;;;;;5127320;28;19930;-86
2021/12/20 11:22:16;;;;;;;;;;;3.00;99.90;;;;;;5130205;28;19930;-86
2021/12/20 11:30:19;;;;;;;;;;;3.20;99.90;;;;;;5138250;28;19951;-84
2021/12/20 11:32:57;;;;;;;;;;;3.20;99.90;;;;;;5141428;28;19924;-85
2021/12/20 11:35:40;;;;;;;;;;;3.80;99.90;;;;;;5135424;28;19924;-83
2021/12/20 11:38:32;;;;;;;;;;;3.70;99.90;;;;;;5134039;27;19945;-86
2021/12/20 11:41:17;;;;;;;;;;;3.10;99.90;;;;;;5134100;28;19996;-84
2021/12/20 11:47:01;;;;;;;;;;;3.20;99.90;;;;;;5134667;28;19924;-84
2021/12/20 11:49:37;;;;;;;;;;;3.30;99.90;;;;;;5133481;28;19923;-85
2021/12/20 11:55:27;;;;;;;;;;;3.30;99.90;;;;;;5131024;28;19951;-84
2021/12/20 11:58:00;;;;;;;;;;;3.40;99.90;;;;;;5062974;28;19931;-85
2021/12/20 12:00:36;;;;;;;;;;;3.30;99.90;;;;;;5118055;28;19934;-84
2021/12/20 12:03:05;;;;;;;;;;;2.80;99.90;;;;;;5122499;28;20366;-84
2021/12/20 12:05:45;;;;;;;;;;;3.50;99.90;;;;;;5125030;28;19923;-85
2021/12/20 12:08:26;;;;;;;;;;;3.30;99.90;;;;;;5124173;28;19924;-85
2021/12/20 12:11:00;;;;;;;;;;;2.60;99.90;;;;;;5123893;28;19931;-85
2021/12/20 12:14:01;;;;;;;;;;;3.50;99.90;;;;;;5124851;28;19924;-84
2021/12/20 12:16:54;;;;;;;;;;;3.40;99.90;;;;;;5126733;28;19923;-86
2021/12/20 12:19:52;;;;;;;;;;;5.10;99.90;;;;;;5140735;28;19912;-87
2021/12/20 12:22:35;;;;;;;;;;;4.40;99.90;;;;;;5136976;28;19924;-85
2021/12/20 12:25:11;;;;;;;;;;;4.20;99.90;;;;;;5140792;28;19922;-86
2021/12/20 12:27:44;;;;;;;;;;;3.50;99.90;;;;;;5140463;28;19923;-84
2021/12/20 12:30:43;;;;;;;;;;;3.40;99.90;;;;;;5140903;28;19971;-86
2021/12/20 12:36:39;;;;;;;;;;;4.50;99.90;;;;;;5133741;28;19930;-86
2021/12/20 12:39:20;;;;;;;;;;;4.00;99.90;;;;;;5141361;28;19934;-86
2021/12/20 12:41:55;;;;;;;;;;;4.40;99.90;;;;;;5131505;28;19923;-88
2021/12/20 12:44:28;;;;;;;;;;;3.60;99.90;;;;;;5129906;28;19930;-87
2021/12/20 12:47:14;;;;;;;;;;;3.60;99.90;;;;;;5131330;28;19983;-85
2021/12/20 12:49:47;;;;;;;;;;;4.00;99.90;;;;;;5132590;28;19924;-87
2021/12/20 12:52:36;;;;;;;;;;;3.60;99.90;;;;;;5137778;28;19924;-86
2021/12/20 12:55:16;;;;;;;;;;;4.40;99.90;;;;;;5136112;28;19951;-84
2021/12/20 12:57:44;;;;;;;;;;;3.60;99.90;;;;;;5132681;28;19927;-85
2021/12/20 13:00:31;;;;;;;;;;;3.60;99.90;;;;;;5136440;27;19934;-86
2021/12/20 13:03:00;;;;;;;;;;;4.40;99.90;;;;;;5137564;28;19931;-84
2021/12/20 13:05:28;;;;;;;;;;;3.00;99.90;;;;;;5139360;28;19960;-85
2021/12/20 13:08:01;;;;;;;;;;;3.80;99.90;;;;;;5139219;28;19950;-84
2021/12/20 13:10:32;;;;;;;;;;;3.40;99.90;;;;;;5137306;28;19928;-86
2021/12/20 13:13:06;;;;;;;;;;;3.40;99.90;;;;;;5130249;28;19924;-85
2021/12/20 13:15:45;;;;;;;;;;;3.50;99.90;;;;;;5135442;28;19931;-86
2021/12/20 13:18:27;;;;;;;;;;;4.20;99.90;;;;;;5128255;28;19934;-86
2021/12/20 13:21:02;;;;;;;;;;;4.20;99.90;;;;;;5136531;28;19915;-86
2021/12/20 13:26:24;;;;;;;;;;;3.60;99.90;;;;;;5138189;28;19912;-86
2021/12/20 13:28:56;;;;;;;;;;;3.60;99.90;;;;;;5140336;28;19931;-86
2021/12/20 13:31:27;;;;;;;;;;;3.50;99.90;;;;;;5139744;28;19924;-86
2021/12/20 13:34:19;;;;;;;;;;;3.60;99.90;;;;;;5139007;27;19954;-85
2021/12/20 13:36:55;;;;;;;;;;;3.60;99.90;;;;;;5131092;28;19924;-86
2021/12/20 13:39:27;;;;;;;;;;;3.60;99.90;;;;;;5127040;28;19924;-85
2021/12/20 13:42:05;;;;;;;;;;;0.80;99.90;;;;;;5126277;28;20001;-85
2021/12/20 13:44:35;;;;;;;;;;;3.50;99.90;;;;;;5127148;28;19923;-86
2021/12/20 13:47:06;;;;;;;;;;;3.60;99.90;;;;;;5129807;28;19924;-86
2021/12/20 13:49:36;;;;;;;;;;;3.60;99.90;;;;;;5132025;28;19977;-86
2021/12/20 13:52:10;;;;;;;;;;;4.10;99.90;;;;;;5124698;28;19924;-88
2021/12/20 13:54:39;;;;;;;;;;;1.50;99.90;;;;;;5125288;28;19923;-87
2021/12/20 13:57:11;;;;;;;;;;;3.70;99.90;;;;;;5125242;28;19924;-86
2021/12/20 13:59:39;;;;;;;;;;;4.10;99.90;;;;;;5130851;28;19935;-87
2021/12/20 14:02:20;;;;;;;;;;;3.70;99.90;;;;;;5136261;28;19975;-85
2021/12/20 14:04:49;;;;;;;;;;;3.60;99.90;;;;;;5137771;28;19947;-85
2021/12/20 14:07:31;;;;;;;;;;;3.50;99.90;;;;;;5137406;28;19931;-88
2021/12/20 14:10:27;;;;;;;;;;;3.60;99.90;;;;;;5127167;28;19923;-87
2021/12/20 14:12:58;;;;;;;;;;;1.70;99.90;;;;;;5123766;28;20270;-86
2021/12/20 14:15:29;;;;;;;;;;;3.50;99.90;;;;;;5123317;28;19973;-87
2021/12/20 14:18:05;;;;;;;;;;;1.50;99.90;;;;;;5124592;28;19924;-88
2021/12/20 14:20:45;;;;;;;;;;;4.90;99.90;;;;;;5125749;28;19924;-85
2021/12/20 14:23:35;;;;;;;;;;;3.50;99.90;;;;;;5123738;28;19931;-85
2021/12/20 14:26:13;;;;;;;;;;;4.30;99.90;;;;;;5125343;28;19923;-87
2021/12/20 14:28:43;;;;;;;;;;;3.40;99.90;;;;;;5131429;28;19932;-86
2021/12/20 14:31:17;;;;;;;;;;;3.40;99.90;;;;;;5127924;28;19927;-87
2021/12/20 14:33:50;;;;;;;;;;;3.40;99.90;;;;;;5131500;28;19944;-86
2021/12/20 14:36:21;;;;;;;;;;;3.30;99.90;;;;;;5134086;28;19934;-87
2021/12/20 14:38:59;;;;;;;;;;;3.40;99.90;;;;;;5137217;28;19923;-87
2021/12/20 14:41:34;;;;;;;;;;;3.40;99.90;;;;;;5134331;28;19924;-85
2021/12/20 14:44:06;;;;;;;;;;;3.40;99.90;;;;;;5129725;28;19923;-87
2021/12/20 14:46:52;;;;;;;;;;;3.50;99.90;;;;;;5127400;28;19957;-87
2021/12/20 14:49:22;;;;;;;;;;;3.40;99.90;;;;;;5124531;28;19931;-86
2021/12/20 14:51:53;;;;;;;;;;;3.30;99.90;;;;;;5125721;28;19951;-86
2021/12/20 14:54:25;;;;;;;;;;;3.20;99.90;;;;;;5123516;28;19932;-87
2021/12/20 14:57:04;;;;;;;;;;;4.70;99.90;;;;;;5124391;28;19948;-87
2021/12/20 14:59:32;;;;;;;;;;;4.70;99.90;;;;;;5123153;28;19924;-86
2021/12/20 15:02:00;;;;;;;;;;;3.30;99.90;;;;;;5124429;28;19934;-87
2021/12/20 15:04:29;;;;;;;;;;;3.30;99.90;;;;;;5124098;28;20318;-87
2021/12/20 15:07:04;;;;;;;;;;;3.20;99.90;;;;;;5127828;28;19923;-87
2021/12/20 15:09:45;;;;;;;;;;;3.30;99.90;;;;;;5125816;28;20000;-86
2021/12/20 15:12:12;;;;;;;;;;;3.20;99.90;;;;;;5126696;28;19933;-85
2021/12/20 15:14:45;;;;;;;;;;;3.30;99.90;;;;;;5136856;28;19915;-85
2021/12/20 15:17:19;;;;;;;;;;;3.30;99.90;;;;;;5138691;28;19932;-85
2021/12/20 15:19:52;;;;;;;;;;;3.30;99.90;;;;;;5138600;28;19979;-84
2021/12/20 15:25:31;;;;;;;;;;;3.20;99.90;;;;;;5134738;28;19930;-84
2021/12/20 15:28:04;;;;;;;;;;;3.40;99.90;;;;;;5127787;28;20328;-87
2021/12/20 15:30:47;;;;;;;;;;;3.40;99.90;;;;;;5126143;28;19927;-86
2021/12/20 15:33:19;;;;;;;;;;;4.30;99.90;;;;;;5127646;28;19931;-87
2021/12/20 15:35:47;;;;;;;;;;;3.30;99.90;;;;;;5139080;28;19914;-86
2021/12/20 15:38:23;;;;;;;;;;;3.70;99.90;;;;;;5140833;28;19912;-86
2021/12/20 15:40:49;;;;;;;;;;;3.70;99.90;;;;;;5129836;22;19931;-80